createdAt,value
2022-12-12T00:01:54.048Z,15.00
2022-12-12T00:04:32.728Z,15.53
2022-12-12T00:07:06.487Z,14.23
2022-12-12T00:09:34.488Z,15.03
2022-12-12T00:12:02.488Z,14.80
2022-12-12T00:14:30.517Z,15.53
2022-12-12T00:17:07.428Z,14.80
2022-12-12T00:19:35.481Z,16.93
2022-12-12T00:22:03.640Z,16.87
2022-12-12T00:24:31.633Z,15.53
2022-12-12T00:26:59.634Z,17.00
2022-12-12T00:29:27.662Z,17.17
2022-12-12T00:31:55.605Z,16.43
2022-12-12T00:34:27.968Z,15.77
2022-12-12T00:36:56.479Z,17.63
2022-12-12T00:39:24.790Z,16.90
2022-12-12T00:41:54.577Z,15.80
2022-12-12T00:44:45.277Z,21.07
2022-12-12T00:47:13.236Z,15.90
2022-12-12T00:49:42.589Z,17.00
2022-12-12T00:52:10.589Z,15.83
2022-12-12T00:54:38.648Z,15.90
2022-12-12T00:57:06.574Z,16.13
2022-12-12T00:59:34.759Z,16.60
2022-12-12T01:04:39.428Z,15.27
2022-12-12T01:07:14.212Z,20.30
2022-12-12T01:09:52.680Z,18.07
2022-12-12T01:12:20.749Z,18.27
2022-12-12T01:14:50.845Z,16.60
2022-12-12T01:20:29.394Z,18.90
2022-12-12T01:23:40.673Z,15.87
2022-12-12T01:26:50.927Z,16.13
2022-12-12T01:29:42.013Z,16.30
2022-12-12T01:32:09.967Z,15.80
2022-12-12T01:34:37.889Z,16.13
2022-12-12T01:37:25.119Z,17.57
2022-12-12T01:39:55.970Z,18.50
2022-12-12T01:42:23.875Z,16.67
2022-12-12T01:44:55.370Z,17.17
2022-12-12T01:47:24.352Z,20.43
2022-12-12T01:49:56.822Z,18.10
2022-12-12T01:52:27.946Z,16.70
2022-12-12T01:55:00.673Z,17.23
2022-12-12T01:57:33.438Z,18.40
2022-12-12T02:00:03.748Z,18.37
2022-12-12T02:02:31.790Z,17.33
2022-12-12T02:05:03.564Z,18.80
2022-12-12T02:07:31.592Z,20.17
2022-12-12T02:10:00.868Z,16.57
2022-12-12T02:12:28.785Z,19.20
2022-12-12T02:14:57.612Z,17.70
2022-12-12T02:18:12.803Z,18.50
2022-12-12T02:21:21.597Z,18.40
2022-12-12T02:24:26.249Z,18.33
2022-12-12T02:27:35.917Z,17.93
2022-12-12T02:30:16.528Z,17.43
2022-12-12T02:33:14.728Z,19.37
2022-12-12T02:35:53.438Z,17.57
2022-12-12T02:38:36.915Z,17.77
2022-12-12T02:41:33.812Z,19.27
2022-12-12T02:44:14.874Z,18.50
2022-12-12T02:46:58.361Z,18.03
2022-12-12T02:49:31.692Z,17.50
2022-12-12T02:52:02.135Z,19.13
2022-12-12T02:54:30.315Z,17.10
2022-12-12T03:00:12.360Z,18.63
2022-12-12T03:03:17.759Z,19.03
2022-12-12T03:06:15.800Z,17.90
2022-12-12T03:09:19.294Z,16.70
2022-12-12T03:12:11.136Z,21.23
2022-12-12T03:15:11.785Z,19.53
2022-12-12T03:17:51.197Z,16.53
2022-12-12T03:20:25.594Z,18.47
2022-12-12T03:22:58.562Z,18.17
2022-12-12T03:25:29.738Z,19.90
2022-12-12T03:28:06.137Z,21.53
2022-12-12T03:30:40.145Z,18.67
2022-12-12T03:33:15.661Z,18.60
2022-12-12T03:36:14.438Z,21.73
2022-12-12T03:38:56.909Z,19.10
2022-12-12T03:41:28.753Z,20.97
2022-12-12T03:44:01.771Z,20.43
2022-12-12T03:46:38.208Z,18.20
2022-12-12T03:49:12.516Z,18.87
2022-12-12T03:55:01.236Z,21.73
2022-12-12T03:57:38.390Z,21.67
2022-12-12T04:00:13.009Z,18.77
2022-12-12T04:02:55.465Z,20.40
2022-12-12T04:05:30.003Z,19.30
2022-12-12T04:08:08.991Z,22.13
2022-12-12T04:11:07.130Z,19.37
2022-12-12T04:13:43.409Z,20.67
2022-12-12T04:16:18.747Z,20.43
2022-12-12T04:18:55.539Z,21.17
2022-12-12T04:21:51.883Z,21.73
2022-12-12T04:24:29.153Z,20.97
2022-12-12T04:27:07.139Z,22.27
2022-12-12T04:29:42.851Z,21.07
2022-12-12T04:32:17.022Z,21.40
2022-12-12T04:34:49.869Z,21.77
2022-12-12T04:37:34.975Z,19.03
2022-12-12T04:40:07.575Z,19.70
2022-12-12T04:42:41.935Z,20.47
2022-12-12T04:45:18.130Z,19.93
2022-12-12T04:47:54.538Z,19.97
2022-12-12T04:52:59.260Z,21.63
2022-12-12T04:55:32.629Z,21.03
2022-12-12T04:58:07.841Z,19.83
2022-12-12T05:00:46.726Z,20.63
2022-12-12T05:03:22.171Z,23.23
2022-12-12T05:05:54.523Z,18.63
2022-12-12T05:08:30.827Z,21.20
2022-12-12T05:11:02.850Z,21.33
2022-12-12T05:13:39.724Z,21.97
2022-12-12T05:16:40.260Z,20.73
2022-12-12T05:22:31.725Z,21.37
2022-12-12T05:25:02.571Z,21.40
2022-12-12T05:27:57.711Z,20.53
2022-12-12T05:31:28.739Z,22.07
2022-12-12T05:34:20.381Z,21.37
2022-12-12T05:37:12.523Z,22.00
2022-12-12T05:40:39.894Z,22.37
2022-12-12T05:43:07.932Z,20.60
2022-12-12T05:45:47.916Z,20.60
2022-12-12T05:48:20.984Z,21.73
2022-12-12T05:50:54.897Z,21.93
2022-12-12T05:57:49.130Z,20.77
2022-12-12T06:00:17.336Z,21.23
2022-12-12T06:02:45.450Z,19.03
2022-12-12T06:05:13.563Z,20.43
2022-12-12T06:07:42.955Z,21.23
2022-12-12T06:10:32.912Z,19.13
2022-12-12T06:13:00.831Z,21.37
2022-12-12T06:15:28.906Z,20.60
2022-12-12T06:17:58.514Z,21.83
2022-12-12T06:20:26.627Z,21.37
2022-12-12T06:22:56.029Z,20.27
2022-12-12T06:25:23.949Z,19.47
2022-12-12T06:28:02.932Z,21.80
2022-12-12T06:30:42.206Z,20.63
2022-12-12T06:33:10.189Z,21.87
2022-12-12T06:35:38.200Z,19.50
2022-12-12T06:38:07.464Z,22.13
2022-12-12T06:40:35.417Z,21.30
2022-12-12T06:43:03.370Z,24.00
2022-12-12T06:45:31.371Z,20.73
2022-12-12T06:47:59.253Z,21.73
2022-12-12T06:50:27.181Z,24.00
2022-12-12T06:52:55.136Z,20.80
2022-12-12T06:55:24.514Z,20.67
2022-12-12T06:57:52.400Z,21.57
2022-12-12T07:00:21.308Z,19.70
2022-12-12T07:02:49.341Z,19.53
2022-12-12T07:05:17.384Z,20.33
2022-12-12T07:07:45.640Z,20.77
2022-12-12T07:10:13.630Z,22.30
2022-12-12T07:12:46.627Z,22.10
2022-12-12T07:15:15.768Z,21.23
2022-12-12T07:17:43.746Z,22.30
2022-12-12T07:20:12.513Z,18.87
2022-12-12T07:22:40.549Z,21.00
2022-12-12T07:25:08.798Z,25.00
2022-12-12T07:27:37.052Z,20.07
2022-12-12T07:30:07.347Z,21.47
2022-12-12T07:32:35.351Z,23.93
2022-12-12T07:35:03.673Z,22.03
2022-12-12T07:37:31.627Z,21.87
2022-12-12T07:39:59.566Z,22.80
2022-12-12T07:42:27.515Z,25.23
2022-12-12T07:44:55.533Z,20.27
2022-12-12T07:47:24.855Z,23.00
2022-12-12T07:49:54.535Z,17.97
2022-12-12T07:52:22.683Z,19.90
2022-12-12T07:54:50.654Z,22.03
2022-12-12T07:57:18.686Z,21.83
2022-12-12T07:59:58.932Z,23.60
2022-12-12T08:02:31.600Z,23.73
2022-12-12T08:05:09.633Z,20.30
2022-12-12T08:07:49.924Z,21.40
2022-12-12T08:10:22.325Z,21.27
2022-12-12T08:15:53.216Z,18.47
2022-12-12T08:18:27.738Z,22.63
2022-12-12T08:21:07.094Z,23.37
2022-12-12T08:23:48.839Z,22.60
2022-12-12T08:26:42.722Z,20.30
2022-12-12T08:29:19.490Z,21.63
2022-12-12T08:31:56.507Z,21.73
2022-12-12T08:35:18.605Z,22.13
2022-12-12T08:37:51.477Z,19.53
2022-12-12T08:40:19.454Z,21.03
2022-12-12T08:42:49.679Z,20.87
2022-12-12T08:45:19.347Z,26.47
2022-12-12T08:47:51.248Z,20.43
2022-12-12T08:50:22.860Z,21.07
2022-12-12T08:52:55.894Z,22.43
2022-12-12T08:55:23.868Z,20.70
2022-12-12T08:57:52.099Z,23.10
2022-12-12T09:00:26.288Z,21.43
2022-12-12T09:02:56.719Z,25.50
2022-12-12T09:05:47.149Z,21.23
2022-12-12T09:08:17.919Z,21.13
2022-12-12T09:10:50.576Z,24.43
2022-12-12T09:16:03.260Z,26.57
2022-12-12T09:18:31.769Z,22.87
2022-12-12T09:21:01.287Z,23.57
2022-12-12T09:23:50.916Z,25.40
2022-12-12T09:26:21.704Z,21.43
2022-12-12T09:29:10.099Z,23.97
2022-12-12T09:31:38.308Z,23.83
2022-12-12T09:34:06.543Z,22.53
2022-12-12T09:36:48.031Z,26.20
2022-12-12T09:39:29.990Z,23.80
2022-12-12T09:44:40.927Z,24.10
2022-12-12T09:47:28.198Z,23.97
2022-12-12T09:53:13.399Z,25.63
2022-12-12T09:56:07.983Z,23.93
2022-12-12T09:58:46.404Z,27.00
2022-12-12T10:01:27.232Z,23.30
2022-12-12T10:04:07.628Z,26.57
2022-12-12T10:06:42.686Z,30.93
2022-12-12T10:09:31.442Z,20.27
2022-12-12T10:12:06.520Z,23.67
2022-12-12T10:14:41.713Z,26.43
2022-12-12T10:17:13.371Z,22.30
2022-12-12T10:19:48.301Z,21.40
2022-12-12T10:22:24.552Z,22.43
2022-12-12T10:24:57.716Z,21.47
2022-12-12T10:27:26.145Z,23.73
2022-12-12T10:29:54.509Z,26.83
2022-12-12T10:32:36.837Z,27.50
2022-12-12T10:35:21.270Z,25.13
2022-12-12T10:38:04.393Z,22.97
2022-12-12T10:40:53.257Z,25.93
2022-12-12T10:43:31.940Z,30.07
2022-12-12T10:46:21.297Z,23.00
2022-12-12T10:48:52.259Z,22.50
2022-12-12T10:51:24.959Z,28.83
2022-12-12T10:53:54.053Z,24.20
2022-12-12T10:56:29.639Z,25.30
2022-12-12T10:59:26.383Z,22.80
2022-12-12T11:02:13.567Z,21.47
2022-12-12T11:08:24.240Z,23.27
2022-12-12T11:11:33.939Z,22.07
2022-12-12T11:14:11.111Z,21.10
2022-12-12T11:17:15.900Z,23.77
2022-12-12T11:23:13.697Z,21.60
2022-12-12T11:25:55.682Z,22.17
2022-12-12T11:28:32.285Z,22.33
2022-12-12T11:31:04.281Z,22.60
2022-12-12T11:33:45.084Z,21.30
2022-12-12T11:36:24.560Z,22.30
2022-12-12T11:38:54.590Z,23.57
2022-12-12T11:41:23.414Z,24.47
2022-12-12T11:44:00.225Z,23.63
2022-12-12T11:46:33.270Z,21.17
2022-12-12T11:49:03.646Z,20.03
2022-12-12T11:51:43.090Z,28.30
2022-12-12T11:54:15.696Z,24.17
2022-12-12T11:57:12.854Z,24.20
2022-12-12T12:00:08.024Z,21.70
2022-12-12T12:03:37.196Z,21.97
2022-12-12T12:06:19.269Z,22.17
2022-12-12T12:09:26.043Z,24.60
2022-12-12T12:12:07.818Z,17.50
2022-12-12T12:15:08.833Z,19.13
2022-12-12T12:18:03.424Z,21.67
2022-12-12T12:20:42.216Z,19.80
2022-12-12T12:23:17.608Z,19.30
2022-12-12T12:25:54.493Z,21.47
2022-12-12T12:29:00.888Z,22.77
2022-12-12T12:31:56.035Z,20.50
2022-12-12T12:34:35.136Z,20.30
2022-12-12T12:37:14.466Z,25.63
2022-12-12T12:40:18.860Z,20.90
2022-12-12T12:43:15.840Z,21.43
2022-12-12T12:45:49.561Z,17.63
2022-12-12T12:48:22.218Z,19.00
2022-12-12T12:50:56.519Z,24.20
2022-12-12T12:57:29.935Z,19.33
2022-12-12T13:00:18.495Z,19.00
2022-12-12T13:03:10.022Z,17.30
2022-12-12T13:09:14.475Z,18.17
2022-12-12T13:11:45.796Z,19.57
2022-12-12T13:14:20.057Z,18.60
2022-12-12T13:17:16.284Z,18.50
2022-12-12T13:19:54.724Z,16.87
2022-12-12T13:22:52.793Z,15.37
2022-12-12T13:25:41.907Z,16.67
2022-12-12T13:28:21.129Z,17.37
2022-12-12T13:31:14.390Z,19.70
2022-12-12T13:34:12.117Z,18.50
2022-12-12T13:36:48.367Z,18.43
2022-12-12T13:39:44.410Z,16.60
2022-12-12T13:43:09.606Z,14.97
2022-12-12T13:46:38.781Z,15.30
2022-12-12T13:49:39.872Z,19.20
2022-12-12T13:52:25.598Z,18.13
2022-12-12T13:55:03.345Z,16.60
2022-12-12T13:57:33.491Z,15.50
2022-12-12T14:00:21.325Z,15.10
2022-12-12T14:03:35.085Z,15.60
2022-12-12T14:06:37.339Z,18.67
2022-12-12T14:09:06.501Z,16.47
2022-12-12T14:11:37.919Z,14.80
2022-12-12T14:14:28.850Z,15.40
2022-12-12T14:17:28.187Z,16.47
2022-12-12T14:19:58.615Z,14.30
2022-12-12T14:22:28.673Z,17.60
2022-12-12T14:25:10.640Z,14.23
2022-12-12T14:28:03.274Z,14.73
2022-12-12T14:31:06.817Z,18.93
2022-12-12T14:34:35.161Z,17.00
2022-12-12T14:37:29.862Z,15.83
2022-12-12T14:43:18.595Z,15.93
2022-12-12T14:46:15.754Z,20.70
2022-12-12T14:49:24.104Z,18.47
2022-12-12T14:51:56.901Z,16.73
2022-12-12T14:54:51.483Z,21.03
2022-12-12T14:57:23.331Z,16.07
2022-12-12T15:00:20.445Z,16.73
2022-12-12T15:06:34.048Z,18.03
2022-12-12T15:09:27.395Z,15.40
2022-12-12T15:11:57.387Z,19.97
2022-12-12T15:14:57.594Z,19.50
2022-12-12T15:17:31.707Z,20.33
2022-12-12T15:20:16.836Z,20.33
2022-12-12T15:22:53.795Z,18.53
2022-12-12T15:25:23.206Z,20.33
2022-12-12T15:27:55.961Z,20.07
2022-12-12T15:30:32.611Z,17.03
2022-12-12T15:33:07.233Z,17.63
2022-12-12T15:35:38.524Z,17.60
2022-12-12T15:38:13.017Z,16.40
2022-12-12T15:40:42.335Z,21.83
2022-12-12T15:43:15.519Z,18.90
2022-12-12T15:45:48.869Z,17.50
2022-12-12T15:48:27.497Z,17.53
2022-12-12T15:50:59.090Z,20.73
2022-12-12T15:53:29.328Z,17.23
2022-12-12T15:56:04.247Z,14.77
2022-12-12T15:58:35.695Z,16.50
2022-12-12T16:01:07.814Z,17.37
2022-12-12T16:04:01.670Z,17.20
2022-12-12T16:06:34.954Z,17.33
2022-12-12T16:09:17.011Z,16.57
2022-12-12T16:11:47.538Z,16.90
2022-12-12T16:14:27.667Z,16.87
2022-12-12T16:17:00.328Z,16.70
2022-12-12T16:19:39.617Z,16.77
2022-12-12T16:22:16.216Z,17.57
2022-12-12T16:24:49.998Z,21.13
2022-12-12T16:27:20.945Z,18.03
2022-12-12T16:29:49.379Z,15.90
2022-12-12T16:32:19.064Z,15.50
2022-12-12T16:35:04.226Z,17.57
2022-12-12T16:37:33.630Z,15.97
2022-12-12T16:40:01.851Z,16.23
2022-12-12T16:42:45.751Z,17.33
2022-12-12T16:45:17.435Z,20.17
2022-12-12T16:48:23.573Z,17.60
2022-12-12T16:51:18.567Z,18.53
2022-12-12T16:53:46.729Z,15.80
2022-12-12T16:56:21.158Z,18.00
2022-12-12T16:58:56.417Z,16.00
2022-12-12T17:01:24.599Z,17.43
2022-12-12T17:03:52.631Z,17.27
2022-12-12T17:06:21.995Z,20.77
2022-12-12T17:08:49.934Z,17.37
2022-12-12T17:11:18.228Z,15.63
2022-12-12T17:13:55.186Z,19.23
2022-12-12T17:16:28.283Z,15.13
2022-12-12T17:18:59.513Z,15.23
2022-12-12T17:21:33.746Z,23.47
2022-12-12T17:24:02.707Z,18.57
2022-12-12T17:26:40.781Z,20.27
2022-12-12T17:29:11.806Z,18.20
2022-12-12T17:31:44.520Z,14.97
2022-12-12T17:34:13.034Z,15.73
2022-12-12T17:37:02.862Z,19.53
2022-12-12T17:39:34.128Z,17.07
2022-12-12T17:42:11.796Z,16.57
2022-12-12T17:44:39.921Z,15.00
2022-12-12T17:49:49.773Z,16.73
2022-12-12T17:53:01.075Z,15.00
2022-12-12T18:01:37.271Z,17.97
2022-12-12T18:08:06.727Z,17.60
2022-12-12T18:11:10.453Z,18.70
2022-12-12T18:13:40.271Z,19.07
2022-12-12T18:22:38.762Z,15.50
2022-12-12T18:25:28.686Z,17.40
2022-12-12T18:31:06.171Z,17.37
2022-12-12T18:34:03.882Z,18.17
2022-12-12T18:44:31.049Z,21.37
2022-12-12T18:53:55.704Z,15.03
2022-12-12T19:00:12.810Z,15.63
2022-12-12T19:08:07.101Z,21.50
2022-12-12T19:10:35.875Z,17.27
2022-12-12T19:13:17.973Z,18.50
2022-12-12T19:16:07.000Z,19.83
2022-12-12T19:19:04.958Z,20.10
2022-12-12T19:22:50.509Z,16.83
2022-12-12T19:27:59.025Z,18.33
2022-12-12T19:30:38.539Z,15.33
2022-12-12T19:33:12.567Z,20.87
2022-12-12T19:35:59.147Z,20.07
2022-12-12T19:38:34.622Z,21.37
2022-12-12T19:41:22.593Z,18.87
2022-12-12T19:43:51.967Z,18.43
2022-12-12T19:46:27.945Z,20.40
2022-12-12T19:49:23.399Z,17.70
2022-12-12T19:51:56.937Z,20.13
2022-12-12T19:57:28.370Z,32.67
2022-12-12T20:06:21.836Z,18.47
2022-12-12T20:08:51.514Z,18.60
2022-12-12T20:11:21.904Z,19.27
2022-12-12T20:16:40.866Z,20.67
2022-12-12T20:22:32.732Z,23.87
2022-12-12T20:25:00.677Z,18.33
2022-12-12T20:28:18.871Z,20.10
2022-12-12T20:34:24.657Z,20.23
2022-12-12T20:37:09.253Z,16.00
2022-12-12T20:39:43.347Z,20.47
2022-12-12T20:42:24.020Z,20.97
2022-12-12T20:44:52.794Z,16.37
2022-12-12T20:47:22.418Z,21.07
2022-12-12T20:49:57.079Z,18.87
2022-12-12T20:52:25.071Z,18.60
2022-12-12T20:55:22.781Z,19.63
2022-12-12T20:57:57.725Z,18.67
2022-12-12T21:00:32.647Z,20.53
2022-12-12T21:03:06.471Z,19.23
2022-12-12T21:05:47.410Z,21.50
2022-12-12T21:08:32.610Z,20.17
2022-12-12T21:11:11.588Z,18.53
2022-12-12T21:13:42.924Z,19.43
2022-12-12T21:17:06.802Z,21.67
2022-12-12T21:19:36.483Z,21.67
2022-12-12T21:22:11.610Z,21.30
2022-12-12T21:30:54.655Z,17.60
2022-12-12T21:36:28.517Z,19.87
2022-12-12T21:39:02.581Z,19.83
2022-12-12T21:41:31.407Z,21.53
2022-12-12T21:44:04.193Z,18.07
2022-12-12T21:46:49.626Z,21.20
2022-12-12T21:52:40.792Z,18.40
2022-12-12T21:55:09.860Z,18.63
2022-12-12T21:57:48.254Z,22.50
2022-12-12T22:00:16.520Z,20.47
2022-12-12T22:05:51.196Z,18.67
2022-12-12T22:12:03.695Z,19.87
2022-12-12T22:14:36.850Z,19.27
2022-12-12T22:17:12.485Z,20.70
2022-12-12T22:19:46.278Z,20.37
2022-12-12T22:22:18.282Z,19.83
2022-12-12T22:27:48.697Z,18.83
2022-12-12T22:30:17.809Z,23.53
2022-12-12T22:32:45.680Z,20.33
2022-12-12T22:35:26.482Z,19.00
2022-12-12T22:37:55.787Z,23.23
2022-12-12T22:40:29.136Z,24.43
2022-12-12T22:43:36.495Z,20.63
2022-12-12T22:46:07.015Z,22.07
2022-12-12T22:48:53.328Z,22.63
2022-12-12T22:51:23.363Z,21.00
2022-12-12T22:53:57.868Z,23.67
2022-12-12T22:56:37.286Z,20.60
2022-12-12T22:59:08.443Z,20.73
2022-12-12T23:01:41.962Z,24.30
2022-12-12T23:04:15.552Z,22.20
2022-12-12T23:06:56.388Z,20.63
2022-12-12T23:09:26.126Z,22.67
2022-12-12T23:11:58.520Z,21.17
2022-12-12T23:14:28.295Z,20.80
2022-12-12T23:16:56.393Z,22.83
2022-12-12T23:19:33.339Z,20.47
2022-12-12T23:22:05.159Z,22.50
2022-12-12T23:24:33.581Z,23.33
2022-12-12T23:27:05.134Z,26.53
2022-12-12T23:29:43.953Z,22.23
2022-12-12T23:32:12.080Z,19.27
2022-12-12T23:34:43.845Z,22.63
2022-12-12T23:37:14.749Z,24.30
2022-12-12T23:39:43.415Z,18.47
2022-12-12T23:42:23.545Z,21.03
2022-12-12T23:45:04.368Z,20.43
2022-12-12T23:47:33.618Z,20.00
2022-12-12T23:50:03.972Z,18.40
2022-12-12T23:52:33.090Z,21.67
2022-12-12T23:55:05.535Z,21.93
2022-12-12T23:57:37.239Z,19.37
